sensor_id;sensor_type;location;lat;lon;timestamp;P1;durP1;ratioP1;P2;durP2;ratioP2
46613;SDS011;32338;50.430;6.806;2023-09-30T00:01:20;5.32;;;2.05;;
46613;SDS011;32338;50.430;6.806;2023-09-30T00:03:47;5.38;;;2.17;;
46613;SDS011;32338;50.430;6.806;2023-09-30T00:06:14;4.55;;;2.00;;
46613;SDS011;32338;50.430;6.806;2023-09-30T00:08:40;5.72;;;1.80;;
46613;SDS011;32338;50.430;6.806;2023-09-30T00:11:08;5.22;;;1.90;;
46613;SDS011;32338;50.430;6.806;2023-09-30T00:13:37;4.95;;;2.22;;
46613;SDS011;32338;50.430;6.806;2023-09-30T00:16:03;6.93;;;2.45;;
46613;SDS011;32338;50.430;6.806;2023-09-30T00:18:30;5.53;;;2.28;;
46613;SDS011;32338;50.430;6.806;2023-09-30T00:20:57;7.80;;;2.28;;
46613;SDS011;32338;50.430;6.806;2023-09-30T00:23:24;4.57;;;2.10;;
46613;SDS011;32338;50.430;6.806;2023-09-30T00:25:50;3.72;;;1.73;;
46613;SDS011;32338;50.430;6.806;2023-09-30T00:28:17;4.13;;;1.80;;
46613;SDS011;32338;50.430;6.806;2023-09-30T00:30:45;8.02;;;2.05;;
46613;SDS011;32338;50.430;6.806;2023-09-30T00:33:12;7.45;;;2.15;;
46613;SDS011;32338;50.430;6.806;2023-09-30T00:35:39;3.80;;;1.98;;
46613;SDS011;32338;50.430;6.806;2023-09-30T00:38:05;3.30;;;2.17;;
46613;SDS011;32338;50.430;6.806;2023-09-30T00:40:33;7.00;;;2.00;;
46613;SDS011;32338;50.430;6.806;2023-09-30T00:43:00;6.75;;;2.05;;
46613;SDS011;32338;50.430;6.806;2023-09-30T00:45:27;4.40;;;2.05;;
46613;SDS011;32338;50.430;6.806;2023-09-30T00:47:55;4.75;;;2.25;;
46613;SDS011;32338;50.430;6.806;2023-09-30T00:50:22;4.75;;;2.10;;
46613;SDS011;32338;50.430;6.806;2023-09-30T00:52:49;2.17;;;1.75;;
46613;SDS011;32338;50.430;6.806;2023-09-30T00:55:16;7.00;;;2.25;;
46613;SDS011;32338;50.430;6.806;2023-09-30T00:57:44;4.07;;;2.13;;
46613;SDS011;32338;50.430;6.806;2023-09-30T01:00:12;2.90;;;1.52;;
46613;SDS011;32338;50.430;6.806;2023-09-30T01:02:39;8.40;;;2.17;;
46613;SDS011;32338;50.430;6.806;2023-09-30T01:05:08;5.45;;;2.03;;
46613;SDS011;32338;50.430;6.806;2023-09-30T01:07:34;7.43;;;1.80;;
46613;SDS011;32338;50.430;6.806;2023-09-30T01:10:02;5.22;;;2.25;;
46613;SDS011;32338;50.430;6.806;2023-09-30T01:12:29;5.03;;;1.92;;
46613;SDS011;32338;50.430;6.806;2023-09-30T01:14:57;7.43;;;2.22;;
46613;SDS011;32338;50.430;6.806;2023-09-30T01:17:24;4.07;;;1.95;;
46613;SDS011;32338;50.430;6.806;2023-09-30T01:19:51;4.45;;;2.00;;
46613;SDS011;32338;50.430;6.806;2023-09-30T01:22:19;5.57;;;1.98;;
46613;SDS011;32338;50.430;6.806;2023-09-30T01:24:46;10.45;;;2.33;;
46613;SDS011;32338;50.430;6.806;2023-09-30T01:27:13;4.95;;;2.25;;
46613;SDS011;32338;50.430;6.806;2023-09-30T01:29:42;3.50;;;2.22;;
46613;SDS011;32338;50.430;6.806;2023-09-30T01:32:09;10.35;;;2.15;;
46613;SDS011;32338;50.430;6.806;2023-09-30T01:34:36;4.90;;;2.00;;
46613;SDS011;32338;50.430;6.806;2023-09-30T01:37:03;8.93;;;2.20;;
46613;SDS011;32338;50.430;6.806;2023-09-30T01:39:31;5.00;;;2.58;;
46613;SDS011;32338;50.430;6.806;2023-09-30T01:41:58;15.02;;;2.20;;
46613;SDS011;32338;50.430;6.806;2023-09-30T01:44:25;4.05;;;1.83;;
46613;SDS011;32338;50.430;6.806;2023-09-30T01:46:52;7.07;;;1.88;;
46613;SDS011;32338;50.430;6.806;2023-09-30T01:49:19;6.25;;;2.10;;
46613;SDS011;32338;50.430;6.806;2023-09-30T01:51:49;8.10;;;2.88;;
46613;SDS011;32338;50.430;6.806;2023-09-30T01:54:15;8.02;;;2.22;;
46613;SDS011;32338;50.430;6.806;2023-09-30T01:56:43;6.28;;;2.17;;
46613;SDS011;32338;50.430;6.806;2023-09-30T01:59:10;4.30;;;2.15;;
46613;SDS011;32338;50.430;6.806;2023-09-30T02:01:36;5.47;;;2.22;;
46613;SDS011;32338;50.430;6.806;2023-09-30T02:04:03;4.57;;;2.42;;
46613;SDS011;32338;50.430;6.806;2023-09-30T02:06:31;6.68;;;2.38;;
46613;SDS011;32338;50.430;6.806;2023-09-30T02:08:58;8.68;;;2.10;;
46613;SDS011;32338;50.430;6.806;2023-09-30T02:11:25;3.85;;;1.88;;
46613;SDS011;32338;50.430;6.806;2023-09-30T02:13:55;10.95;;;2.25;;
46613;SDS011;32338;50.430;6.806;2023-09-30T02:16:21;6.88;;;2.25;;
46613;SDS011;32338;50.430;6.806;2023-09-30T02:18:49;7.28;;;2.20;;
46613;SDS011;32338;50.430;6.806;2023-09-30T02:21:16;6.00;;;2.75;;
46613;SDS011;32338;50.430;6.806;2023-09-30T02:23:43;10.20;;;2.55;;
46613;SDS011;32338;50.430;6.806;2023-09-30T02:26:13;5.63;;;2.33;;
46613;SDS011;32338;50.430;6.806;2023-09-30T02:28:39;3.00;;;2.30;;
46613;SDS011;32338;50.430;6.806;2023-09-30T02:31:07;5.80;;;2.67;;
46613;SDS011;32338;50.430;6.806;2023-09-30T02:33:34;5.25;;;3.13;;
46613;SDS011;32338;50.430;6.806;2023-09-30T02:36:02;7.65;;;2.97;;
46613;SDS011;32338;50.430;6.806;2023-09-30T02:38:30;4.90;;;2.00;;
46613;SDS011;32338;50.430;6.806;2023-09-30T02:40:57;7.63;;;2.13;;
46613;SDS011;32338;50.430;6.806;2023-09-30T02:43:24;13.05;;;2.40;;
46613;SDS011;32338;50.430;6.806;2023-09-30T02:45:50;5.18;;;1.95;;
46613;SDS011;32338;50.430;6.806;2023-09-30T02:48:19;7.35;;;2.20;;
46613;SDS011;32338;50.430;6.806;2023-09-30T02:50:45;4.97;;;2.00;;
46613;SDS011;32338;50.430;6.806;2023-09-30T02:53:12;9.95;;;2.65;;
46613;SDS011;32338;50.430;6.806;2023-09-30T02:55:39;10.02;;;2.53;;
46613;SDS011;32338;50.430;6.806;2023-09-30T02:58:06;5.45;;;2.25;;
46613;SDS011;32338;50.430;6.806;2023-09-30T03:00:33;6.13;;;2.25;;
46613;SDS011;32338;50.430;6.806;2023-09-30T03:03:01;2.80;;;2.13;;
46613;SDS011;32338;50.430;6.806;2023-09-30T03:05:29;6.22;;;2.03;;
46613;SDS011;32338;50.430;6.806;2023-09-30T03:07:58;3.00;;;1.92;;
46613;SDS011;32338;50.430;6.806;2023-09-30T03:10:26;3.65;;;2.75;;
46613;SDS011;32338;50.430;6.806;2023-09-30T03:12:52;7.38;;;2.42;;
46613;SDS011;32338;50.430;6.806;2023-09-30T03:15:19;5.32;;;2.22;;
46613;SDS011;32338;50.430;6.806;2023-09-30T03:17:46;7.18;;;2.83;;
46613;SDS011;32338;50.430;6.806;2023-09-30T03:20:13;12.27;;;2.53;;
46613;SDS011;32338;50.430;6.806;2023-09-30T03:22:45;6.95;;;2.42;;
46613;SDS011;32338;50.430;6.806;2023-09-30T03:25:13;14.70;;;3.15;;
46613;SDS011;32338;50.430;6.806;2023-09-30T03:27:42;6.88;;;2.38;;
46613;SDS011;32338;50.430;6.806;2023-09-30T03:30:10;3.88;;;1.90;;
46613;SDS011;32338;50.430;6.806;2023-09-30T03:32:37;6.63;;;2.50;;
46613;SDS011;32338;50.430;6.806;2023-09-30T03:35:04;5.47;;;2.55;;
46613;SDS011;32338;50.430;6.806;2023-09-30T03:37:32;9.68;;;3.40;;
46613;SDS011;32338;50.430;6.806;2023-09-30T03:40:01;4.45;;;2.42;;
46613;SDS011;32338;50.430;6.806;2023-09-30T03:42:36;14.23;;;2.65;;
46613;SDS011;32338;50.430;6.806;2023-09-30T03:45:04;7.60;;;2.50;;
46613;SDS011;32338;50.430;6.806;2023-09-30T03:47:32;4.30;;;2.40;;
46613;SDS011;32338;50.430;6.806;2023-09-30T03:50:00;7.97;;;3.05;;
46613;SDS011;32338;50.430;6.806;2023-09-30T03:52:29;4.65;;;2.25;;
46613;SDS011;32338;50.430;6.806;2023-09-30T03:54:58;5.60;;;2.17;;
46613;SDS011;32338;50.430;6.806;2023-09-30T03:57:26;5.07;;;2.35;;
46613;SDS011;32338;50.430;6.806;2023-09-30T03:59:53;5.45;;;2.30;;
46613;SDS011;32338;50.430;6.806;2023-09-30T04:02:19;5.03;;;2.58;;
46613;SDS011;32338;50.430;6.806;2023-09-30T04:04:46;8.60;;;2.83;;
46613;SDS011;32338;50.430;6.806;2023-09-30T04:07:14;3.22;;;2.30;;
46613;SDS011;32338;50.430;6.806;2023-09-30T04:09:41;5.90;;;2.83;;
46613;SDS011;32338;50.430;6.806;2023-09-30T04:12:08;4.10;;;2.53;;
46613;SDS011;32338;50.430;6.806;2023-09-30T04:14:36;3.60;;;2.55;;
46613;SDS011;32338;50.430;6.806;2023-09-30T04:17:03;2.83;;;2.20;;
46613;SDS011;32338;50.430;6.806;2023-09-30T04:19:30;5.05;;;1.95;;
46613;SDS011;32338;50.430;6.806;2023-09-30T04:21:57;2.83;;;2.35;;
46613;SDS011;32338;50.430;6.806;2023-09-30T04:24:24;9.57;;;2.60;;
46613;SDS011;32338;50.430;6.806;2023-09-30T04:26:51;3.03;;;2.38;;
46613;SDS011;32338;50.430;6.806;2023-09-30T04:29:22;6.30;;;2.72;;
46613;SDS011;32338;50.430;6.806;2023-09-30T04:31:49;5.93;;;2.35;;
46613;SDS011;32338;50.430;6.806;2023-09-30T04:34:17;10.02;;;1.85;;
46613;SDS011;32338;50.430;6.806;2023-09-30T04:36:44;10.35;;;2.30;;
46613;SDS011;32338;50.430;6.806;2023-09-30T04:39:10;7.53;;;2.55;;
46613;SDS011;32338;50.430;6.806;2023-09-30T04:41:37;3.75;;;2.13;;
46613;SDS011;32338;50.430;6.806;2023-09-30T04:44:06;4.88;;;1.88;;
46613;SDS011;32338;50.430;6.806;2023-09-30T04:46:34;8.93;;;2.35;;
46613;SDS011;32338;50.430;6.806;2023-09-30T04:49:06;10.27;;;2.53;;
46613;SDS011;32338;50.430;6.806;2023-09-30T04:51:34;4.28;;;2.70;;
46613;SDS011;32338;50.430;6.806;2023-09-30T04:54:00;10.95;;;3.30;;
46613;SDS011;32338;50.430;6.806;2023-09-30T04:56:28;8.63;;;3.60;;
46613;SDS011;32338;50.430;6.806;2023-09-30T04:58:55;31.88;;;3.78;;
46613;SDS011;32338;50.430;6.806;2023-09-30T05:01:23;13.15;;;4.72;;
46613;SDS011;32338;50.430;6.806;2023-09-30T05:03:50;38.28;;;6.25;;
46613;SDS011;32338;50.430;6.806;2023-09-30T05:06:18;33.20;;;6.70;;
46613;SDS011;32338;50.430;6.806;2023-09-30T05:08:44;19.52;;;6.90;;
46613;SDS011;32338;50.430;6.806;2023-09-30T05:11:11;10.85;;;6.55;;
46613;SDS011;32338;50.430;6.806;2023-09-30T05:13:38;21.70;;;7.32;;
46613;SDS011;32338;50.430;6.806;2023-09-30T05:16:05;7.05;;;4.40;;
46613;SDS011;32338;50.430;6.806;2023-09-30T05:18:32;10.20;;;3.65;;
46613;SDS011;32338;50.430;6.806;2023-09-30T05:20:58;6.28;;;3.25;;
46613;SDS011;32338;50.430;6.806;2023-09-30T05:23:26;4.40;;;3.17;;
46613;SDS011;32338;50.430;6.806;2023-09-30T05:25:53;10.00;;;4.32;;
46613;SDS011;32338;50.430;6.806;2023-09-30T05:28:20;9.15;;;4.18;;
46613;SDS011;32338;50.430;6.806;2023-09-30T05:30:46;8.18;;;5.15;;
46613;SDS011;32338;50.430;6.806;2023-09-30T05:33:13;7.53;;;5.47;;
46613;SDS011;32338;50.430;6.806;2023-09-30T05:35:40;8.20;;;3.20;;
46613;SDS011;32338;50.430;6.806;2023-09-30T05:38:07;11.25;;;7.38;;
46613;SDS011;32338;50.430;6.806;2023-09-30T05:40:36;9.00;;;6.50;;
46613;SDS011;32338;50.430;6.806;2023-09-30T05:43:03;16.35;;;4.55;;
46613;SDS011;32338;50.430;6.806;2023-09-30T05:45:30;11.13;;;3.63;;
46613;SDS011;32338;50.430;6.806;2023-09-30T05:48:01;18.42;;;3.85;;
46613;SDS011;32338;50.430;6.806;2023-09-30T05:50:31;15.57;;;4.32;;
46613;SDS011;32338;50.430;6.806;2023-09-30T05:52:59;6.03;;;4.00;;
46613;SDS011;32338;50.430;6.806;2023-09-30T05:55:26;6.38;;;5.75;;
46613;SDS011;32338;50.430;6.806;2023-09-30T05:57:54;6.97;;;5.80;;
46613;SDS011;32338;50.430;6.806;2023-09-30T06:00:21;7.78;;;6.18;;
46613;SDS011;32338;50.430;6.806;2023-09-30T06:02:48;18.20;;;6.05;;
46613;SDS011;32338;50.430;6.806;2023-09-30T06:05:16;6.05;;;4.63;;
46613;SDS011;32338;50.430;6.806;2023-09-30T06:07:44;10.13;;;6.35;;
46613;SDS011;32338;50.430;6.806;2023-09-30T06:10:11;8.82;;;7.47;;
46613;SDS011;32338;50.430;6.806;2023-09-30T06:12:43;8.48;;;7.47;;
46613;SDS011;32338;50.430;6.806;2023-09-30T06:15:12;8.25;;;7.45;;
46613;SDS011;32338;50.430;6.806;2023-09-30T06:17:39;12.18;;;7.50;;
46613;SDS011;32338;50.430;6.806;2023-09-30T06:20:07;12.85;;;6.25;;
46613;SDS011;32338;50.430;6.806;2023-09-30T06:22:41;13.90;;;6.68;;
46613;SDS011;32338;50.430;6.806;2023-09-30T06:25:08;7.15;;;5.78;;
46613;SDS011;32338;50.430;6.806;2023-09-30T06:27:35;13.52;;;5.95;;
46613;SDS011;32338;50.430;6.806;2023-09-30T06:30:02;18.50;;;8.18;;
46613;SDS011;32338;50.430;6.806;2023-09-30T06:32:31;20.80;;;10.65;;
46613;SDS011;32338;50.430;6.806;2023-09-30T06:34:58;23.00;;;11.75;;
46613;SDS011;32338;50.430;6.806;2023-09-30T06:37:25;23.42;;;12.07;;
46613;SDS011;32338;50.430;6.806;2023-09-30T06:39:54;22.20;;;11.32;;
46613;SDS011;32338;50.430;6.806;2023-09-30T06:42:21;19.75;;;10.63;;
46613;SDS011;32338;50.430;6.806;2023-09-30T06:44:47;19.90;;;10.35;;
46613;SDS011;32338;50.430;6.806;2023-09-30T06:47:14;22.20;;;10.13;;
46613;SDS011;32338;50.430;6.806;2023-09-30T06:49:42;16.65;;;9.50;;
46613;SDS011;32338;50.430;6.806;2023-09-30T06:52:10;25.42;;;9.52;;
46613;SDS011;32338;50.430;6.806;2023-09-30T06:54:36;22.60;;;8.15;;
46613;SDS011;32338;50.430;6.806;2023-09-30T06:57:03;16.85;;;7.93;;
46613;SDS011;32338;50.430;6.806;2023-09-30T06:59:31;11.75;;;7.80;;
46613;SDS011;32338;50.430;6.806;2023-09-30T07:01:58;18.38;;;7.60;;
46613;SDS011;32338;50.430;6.806;2023-09-30T07:04:24;16.90;;;6.95;;
46613;SDS011;32338;50.430;6.806;2023-09-30T07:06:53;17.60;;;7.93;;
46613;SDS011;32338;50.430;6.806;2023-09-30T07:09:20;15.05;;;7.93;;
46613;SDS011;32338;50.430;6.806;2023-09-30T07:11:46;20.40;;;8.85;;
46613;SDS011;32338;50.430;6.806;2023-09-30T07:14:14;24.52;;;10.32;;
46613;SDS011;32338;50.430;6.806;2023-09-30T07:16:41;47.50;;;11.40;;
46613;SDS011;32338;50.430;6.806;2023-09-30T07:19:08;33.33;;;10.63;;
46613;SDS011;32338;50.430;6.806;2023-09-30T07:21:34;22.92;;;11.75;;
46613;SDS011;32338;50.430;6.806;2023-09-30T07:24:04;34.50;;;12.45;;
46613;SDS011;32338;50.430;6.806;2023-09-30T07:26:31;26.85;;;11.65;;
46613;SDS011;32338;50.430;6.806;2023-09-30T07:28:58;31.73;;;11.48;;
46613;SDS011;32338;50.430;6.806;2023-09-30T07:31:24;27.15;;;11.77;;
46613;SDS011;32338;50.430;6.806;2023-09-30T07:33:51;25.77;;;10.60;;
46613;SDS011;32338;50.430;6.806;2023-09-30T07:36:18;20.27;;;11.25;;
46613;SDS011;32338;50.430;6.806;2023-09-30T07:38:45;19.98;;;10.27;;
46613;SDS011;32338;50.430;6.806;2023-09-30T07:41:13;25.55;;;10.30;;
46613;SDS011;32338;50.430;6.806;2023-09-30T07:43:40;21.98;;;11.00;;
46613;SDS011;32338;50.430;6.806;2023-09-30T07:46:06;18.17;;;11.20;;
46613;SDS011;32338;50.430;6.806;2023-09-30T07:48:33;15.80;;;10.13;;
46613;SDS011;32338;50.430;6.806;2023-09-30T07:51:00;15.13;;;9.90;;
46613;SDS011;32338;50.430;6.806;2023-09-30T07:53:26;20.88;;;10.57;;
46613;SDS011;32338;50.430;6.806;2023-09-30T07:55:53;15.13;;;10.68;;
46613;SDS011;32338;50.430;6.806;2023-09-30T07:58:23;20.88;;;11.32;;
46613;SDS011;32338;50.430;6.806;2023-09-30T08:00:50;19.05;;;10.77;;
46613;SDS011;32338;50.430;6.806;2023-09-30T08:03:16;25.55;;;12.02;;
46613;SDS011;32338;50.430;6.806;2023-09-30T08:05:43;19.95;;;11.68;;
46613;SDS011;32338;50.430;6.806;2023-09-30T08:08:11;18.02;;;10.23;;
46613;SDS011;32338;50.430;6.806;2023-09-30T08:10:39;13.50;;;9.45;;
46613;SDS011;32338;50.430;6.806;2023-09-30T08:13:06;14.25;;;9.98;;
46613;SDS011;32338;50.430;6.806;2023-09-30T08:15:34;13.77;;;9.32;;
46613;SDS011;32338;50.430;6.806;2023-09-30T08:18:00;16.83;;;11.07;;
46613;SDS011;32338;50.430;6.806;2023-09-30T08:20:28;19.15;;;10.45;;
46613;SDS011;32338;50.430;6.806;2023-09-30T08:22:54;16.70;;;10.55;;
46613;SDS011;32338;50.430;6.806;2023-09-30T08:25:21;15.90;;;10.30;;
46613;SDS011;32338;50.430;6.806;2023-09-30T08:27:47;15.00;;;9.88;;
46613;SDS011;32338;50.430;6.806;2023-09-30T08:30:15;13.52;;;9.90;;
46613;SDS011;32338;50.430;6.806;2023-09-30T08:32:43;20.38;;;11.50;;
46613;SDS011;32338;50.430;6.806;2023-09-30T08:35:11;20.58;;;11.48;;
46613;SDS011;32338;50.430;6.806;2023-09-30T08:37:39;18.35;;;11.68;;
46613;SDS011;32338;50.430;6.806;2023-09-30T08:40:07;16.08;;;10.88;;
46613;SDS011;32338;50.430;6.806;2023-09-30T08:42:34;16.42;;;11.45;;
46613;SDS011;32338;50.430;6.806;2023-09-30T08:45:01;17.77;;;10.90;;
46613;SDS011;32338;50.430;6.806;2023-09-30T08:47:28;18.48;;;11.18;;
46613;SDS011;32338;50.430;6.806;2023-09-30T08:49:57;13.70;;;9.70;;
46613;SDS011;32338;50.430;6.806;2023-09-30T08:52:31;16.55;;;9.85;;
46613;SDS011;32338;50.430;6.806;2023-09-30T08:54:58;11.48;;;9.18;;
46613;SDS011;32338;50.430;6.806;2023-09-30T08:57:24;10.65;;;8.65;;
46613;SDS011;32338;50.430;6.806;2023-09-30T08:59:52;11.80;;;8.75;;
46613;SDS011;32338;50.430;6.806;2023-09-30T09:02:19;11.50;;;7.93;;
46613;SDS011;32338;50.430;6.806;2023-09-30T09:04:46;15.02;;;9.35;;
46613;SDS011;32338;50.430;6.806;2023-09-30T09:07:15;9.80;;;7.80;;
46613;SDS011;32338;50.430;6.806;2023-09-30T09:09:42;17.05;;;7.15;;
46613;SDS011;32338;50.430;6.806;2023-09-30T09:12:29;11.77;;;8.02;;
46613;SDS011;32338;50.430;6.806;2023-09-30T09:14:55;9.60;;;7.20;;
46613;SDS011;32338;50.430;6.806;2023-09-30T09:17:22;9.20;;;6.82;;
46613;SDS011;32338;50.430;6.806;2023-09-30T09:19:55;9.70;;;6.90;;
46613;SDS011;32338;50.430;6.806;2023-09-30T09:22:37;8.32;;;6.25;;
46613;SDS011;32338;50.430;6.806;2023-09-30T09:25:04;10.88;;;6.20;;
46613;SDS011;32338;50.430;6.806;2023-09-30T09:27:32;7.88;;;6.45;;
46613;SDS011;32338;50.430;6.806;2023-09-30T09:30:13;7.95;;;5.63;;
46613;SDS011;32338;50.430;6.806;2023-09-30T09:32:50;7.38;;;5.47;;
46613;SDS011;32338;50.430;6.806;2023-09-30T09:35:28;4.82;;;4.28;;
46613;SDS011;32338;50.430;6.806;2023-09-30T09:38:00;6.55;;;4.50;;
46613;SDS011;32338;50.430;6.806;2023-09-30T09:40:29;3.97;;;3.55;;
46613;SDS011;32338;50.430;6.806;2023-09-30T09:42:57;4.88;;;3.55;;
46613;SDS011;32338;50.430;6.806;2023-09-30T09:45:25;4.78;;;3.67;;
46613;SDS011;32338;50.430;6.806;2023-09-30T09:47:53;6.43;;;3.90;;
46613;SDS011;32338;50.430;6.806;2023-09-30T09:50:21;5.18;;;3.22;;
46613;SDS011;32338;50.430;6.806;2023-09-30T09:52:49;4.63;;;3.00;;
46613;SDS011;32338;50.430;6.806;2023-09-30T09:55:19;5.55;;;3.17;;
46613;SDS011;32338;50.430;6.806;2023-09-30T09:57:47;4.60;;;3.08;;
46613;SDS011;32338;50.430;6.806;2023-09-30T10:00:15;4.78;;;2.97;;
46613;SDS011;32338;50.430;6.806;2023-09-30T10:02:44;4.72;;;2.55;;
46613;SDS011;32338;50.430;6.806;2023-09-30T10:05:11;4.72;;;2.80;;
46613;SDS011;32338;50.430;6.806;2023-09-30T10:07:39;4.28;;;2.75;;
46613;SDS011;32338;50.430;6.806;2023-09-30T10:10:11;9.80;;;2.70;;
46613;SDS011;32338;50.430;6.806;2023-09-30T10:12:43;7.32;;;3.72;;
46613;SDS011;32338;50.430;6.806;2023-09-30T10:18:01;6.43;;;3.65;;
46613;SDS011;32338;50.430;6.806;2023-09-30T10:20:29;5.72;;;3.25;;
46613;SDS011;32338;50.430;6.806;2023-09-30T10:25:48;5.65;;;3.65;;
46613;SDS011;32338;50.430;6.806;2023-09-30T10:28:36;5.38;;;3.40;;
46613;SDS011;32338;50.430;6.806;2023-09-30T10:31:08;5.18;;;3.15;;
46613;SDS011;32338;50.430;6.806;2023-09-30T10:33:36;5.35;;;3.78;;
46613;SDS011;32338;50.430;6.806;2023-09-30T10:36:02;9.45;;;3.78;;
46613;SDS011;32338;50.430;6.806;2023-09-30T10:38:37;5.03;;;2.60;;
46613;SDS011;32338;50.430;6.806;2023-09-30T10:41:06;5.63;;;2.97;;
46613;SDS011;32338;50.430;6.806;2023-09-30T10:43:34;5.95;;;3.20;;
46613;SDS011;32338;50.430;6.806;2023-09-30T10:46:03;6.18;;;3.70;;
46613;SDS011;32338;50.430;6.806;2023-09-30T10:48:35;6.15;;;3.45;;
46613;SDS011;32338;50.430;6.806;2023-09-30T10:51:13;4.90;;;2.83;;
46613;SDS011;32338;50.430;6.806;2023-09-30T10:53:41;4.07;;;3.00;;
46613;SDS011;32338;50.430;6.806;2023-09-30T10:56:09;6.18;;;2.80;;
46613;SDS011;32338;50.430;6.806;2023-09-30T10:58:41;7.28;;;3.22;;
46613;SDS011;32338;50.430;6.806;2023-09-30T11:01:08;7.40;;;3.28;;
46613;SDS011;32338;50.430;6.806;2023-09-30T11:03:35;7.68;;;3.40;;
46613;SDS011;32338;50.430;6.806;2023-09-30T11:06:02;7.85;;;3.40;;
46613;SDS011;32338;50.430;6.806;2023-09-30T11:08:30;6.80;;;3.28;;
46613;SDS011;32338;50.430;6.806;2023-09-30T11:10:56;7.93;;;3.22;;
46613;SDS011;32338;50.430;6.806;2023-09-30T11:13:25;7.70;;;3.03;;
46613;SDS011;32338;50.430;6.806;2023-09-30T11:16:02;6.15;;;3.08;;
46613;SDS011;32338;50.430;6.806;2023-09-30T11:18:30;5.47;;;3.03;;
46613;SDS011;32338;50.430;6.806;2023-09-30T11:21:05;6.10;;;3.08;;
46613;SDS011;32338;50.430;6.806;2023-09-30T11:23:33;6.28;;;3.08;;
46613;SDS011;32338;50.430;6.806;2023-09-30T11:25:59;5.68;;;2.83;;
46613;SDS011;32338;50.430;6.806;2023-09-30T11:28:34;3.10;;;2.35;;
46613;SDS011;32338;50.430;6.806;2023-09-30T11:31:04;4.70;;;2.65;;
46613;SDS011;32338;50.430;6.806;2023-09-30T11:33:46;5.53;;;2.65;;
46613;SDS011;32338;50.430;6.806;2023-09-30T11:36:14;7.30;;;2.95;;
46613;SDS011;32338;50.430;6.806;2023-09-30T11:38:44;4.88;;;2.40;;
46613;SDS011;32338;50.430;6.806;2023-09-30T11:41:12;7.70;;;3.17;;
46613;SDS011;32338;50.430;6.806;2023-09-30T11:43:39;6.28;;;2.78;;
46613;SDS011;32338;50.430;6.806;2023-09-30T11:46:25;5.38;;;2.97;;
46613;SDS011;32338;50.430;6.806;2023-09-30T11:48:56;5.35;;;2.85;;
46613;SDS011;32338;50.430;6.806;2023-09-30T11:51:24;6.03;;;3.15;;
46613;SDS011;32338;50.430;6.806;2023-09-30T11:53:51;6.93;;;3.28;;
46613;SDS011;32338;50.430;6.806;2023-09-30T11:56:19;4.57;;;2.80;;
46613;SDS011;32338;50.430;6.806;2023-09-30T11:58:47;8.40;;;2.95;;
46613;SDS011;32338;50.430;6.806;2023-09-30T12:01:14;9.30;;;3.10;;
46613;SDS011;32338;50.430;6.806;2023-09-30T12:03:42;7.75;;;2.88;;
46613;SDS011;32338;50.430;6.806;2023-09-30T12:06:09;7.47;;;2.85;;
46613;SDS011;32338;50.430;6.806;2023-09-30T12:08:38;6.28;;;3.20;;
46613;SDS011;32338;50.430;6.806;2023-09-30T12:11:05;5.55;;;3.33;;
46613;SDS011;32338;50.430;6.806;2023-09-30T12:13:32;7.20;;;3.17;;
46613;SDS011;32338;50.430;6.806;2023-09-30T12:15:58;6.13;;;2.97;;
46613;SDS011;32338;50.430;6.806;2023-09-30T12:18:25;5.00;;;3.15;;
46613;SDS011;32338;50.430;6.806;2023-09-30T12:20:53;5.53;;;2.85;;
46613;SDS011;32338;50.430;6.806;2023-09-30T12:23:19;4.35;;;2.50;;
46613;SDS011;32338;50.430;6.806;2023-09-30T12:25:46;5.30;;;2.70;;
46613;SDS011;32338;50.430;6.806;2023-09-30T12:28:13;3.30;;;2.45;;
46613;SDS011;32338;50.430;6.806;2023-09-30T12:30:40;5.38;;;2.95;;
46613;SDS011;32338;50.430;6.806;2023-09-30T12:33:08;5.97;;;3.00;;
46613;SDS011;32338;50.430;6.806;2023-09-30T12:35:35;6.30;;;3.78;;
46613;SDS011;32338;50.430;6.806;2023-09-30T12:38:04;5.50;;;2.95;;
46613;SDS011;32338;50.430;6.806;2023-09-30T12:40:31;4.22;;;2.88;;
46613;SDS011;32338;50.430;6.806;2023-09-30T12:42:58;7.38;;;3.15;;
46613;SDS011;32338;50.430;6.806;2023-09-30T12:45:26;5.85;;;2.50;;
46613;SDS011;32338;50.430;6.806;2023-09-30T12:47:53;6.20;;;2.65;;
46613;SDS011;32338;50.430;6.806;2023-09-30T12:50:21;4.80;;;2.22;;
46613;SDS011;32338;50.430;6.806;2023-09-30T12:52:48;5.53;;;2.80;;
46613;SDS011;32338;50.430;6.806;2023-09-30T12:55:16;4.55;;;2.95;;
46613;SDS011;32338;50.430;6.806;2023-09-30T12:57:42;5.38;;;2.90;;
46613;SDS011;32338;50.430;6.806;2023-09-30T13:00:09;5.65;;;2.28;;
46613;SDS011;32338;50.430;6.806;2023-09-30T13:02:37;8.00;;;2.92;;
46613;SDS011;32338;50.430;6.806;2023-09-30T13:05:03;9.20;;;3.08;;
46613;SDS011;32338;50.430;6.806;2023-09-30T13:07:32;5.25;;;2.53;;
46613;SDS011;32338;50.430;6.806;2023-09-30T13:09:58;5.28;;;2.95;;
46613;SDS011;32338;50.430;6.806;2023-09-30T13:12:27;3.55;;;2.40;;
46613;SDS011;32338;50.430;6.806;2023-09-30T13:14:54;6.28;;;2.35;;
46613;SDS011;32338;50.430;6.806;2023-09-30T13:17:21;5.22;;;2.83;;
46613;SDS011;32338;50.430;6.806;2023-09-30T13:19:48;4.78;;;2.40;;
46613;SDS011;32338;50.430;6.806;2023-09-30T13:22:16;4.55;;;2.80;;
46613;SDS011;32338;50.430;6.806;2023-09-30T13:24:42;5.47;;;3.10;;
46613;SDS011;32338;50.430;6.806;2023-09-30T13:27:09;3.15;;;2.13;;
46613;SDS011;32338;50.430;6.806;2023-09-30T13:29:37;4.15;;;2.33;;
46613;SDS011;32338;50.430;6.806;2023-09-30T13:32:05;7.35;;;2.80;;
46613;SDS011;32338;50.430;6.806;2023-09-30T13:34:32;5.50;;;2.90;;
46613;SDS011;32338;50.430;6.806;2023-09-30T13:36:58;5.38;;;2.55;;
46613;SDS011;32338;50.430;6.806;2023-09-30T13:39:25;4.28;;;2.47;;
46613;SDS011;32338;50.430;6.806;2023-09-30T13:41:52;6.57;;;2.70;;
46613;SDS011;32338;50.430;6.806;2023-09-30T13:44:19;4.18;;;2.55;;
46613;SDS011;32338;50.430;6.806;2023-09-30T13:46:47;6.82;;;2.45;;
46613;SDS011;32338;50.430;6.806;2023-09-30T13:49:14;6.18;;;2.47;;
46613;SDS011;32338;50.430;6.806;2023-09-30T13:51:40;3.75;;;2.10;;
46613;SDS011;32338;50.430;6.806;2023-09-30T13:54:07;5.68;;;2.38;;
46613;SDS011;32338;50.430;6.806;2023-09-30T13:56:33;2.90;;;2.17;;
46613;SDS011;32338;50.430;6.806;2023-09-30T13:59:00;5.80;;;2.65;;
46613;SDS011;32338;50.430;6.806;2023-09-30T14:01:26;3.72;;;2.20;;
46613;SDS011;32338;50.430;6.806;2023-09-30T14:03:54;3.97;;;2.20;;
46613;SDS011;32338;50.430;6.806;2023-09-30T14:06:23;4.10;;;2.30;;
46613;SDS011;32338;50.430;6.806;2023-09-30T14:08:49;5.15;;;2.15;;
46613;SDS011;32338;50.430;6.806;2023-09-30T14:11:18;4.28;;;2.33;;
46613;SDS011;32338;50.430;6.806;2023-09-30T14:13:44;3.40;;;2.33;;
46613;SDS011;32338;50.430;6.806;2023-09-30T14:16:11;6.43;;;2.70;;
46613;SDS011;32338;50.430;6.806;2023-09-30T14:18:37;3.17;;;2.30;;
46613;SDS011;32338;50.430;6.806;2023-09-30T14:21:05;2.65;;;1.83;;
46613;SDS011;32338;50.430;6.806;2023-09-30T14:23:32;3.72;;;2.22;;
46613;SDS011;32338;50.430;6.806;2023-09-30T14:25:59;4.75;;;2.20;;
46613;SDS011;32338;50.430;6.806;2023-09-30T14:28:29;8.23;;;1.92;;
46613;SDS011;32338;50.430;6.806;2023-09-30T14:30:57;4.65;;;2.55;;
46613;SDS011;32338;50.430;6.806;2023-09-30T14:33:23;4.55;;;2.40;;
46613;SDS011;32338;50.430;6.806;2023-09-30T14:35:50;3.55;;;2.20;;
46613;SDS011;32338;50.430;6.806;2023-09-30T14:38:18;3.05;;;2.17;;
46613;SDS011;32338;50.430;6.806;2023-09-30T14:40:44;3.28;;;2.20;;
46613;SDS011;32338;50.430;6.806;2023-09-30T14:43:11;4.13;;;2.17;;
46613;SDS011;32338;50.430;6.806;2023-09-30T14:45:38;5.78;;;2.10;;
46613;SDS011;32338;50.430;6.806;2023-09-30T14:48:05;3.90;;;2.15;;
46613;SDS011;32338;50.430;6.806;2023-09-30T14:50:32;5.65;;;2.30;;
46613;SDS011;32338;50.430;6.806;2023-09-30T14:52:58;5.75;;;2.58;;